createdAt,value
2022-11-17T00:00:28.131Z,50.30
2022-11-17T00:01:28.112Z,50.20
2022-11-17T00:02:28.183Z,50.00
2022-11-17T00:03:28.088Z,50.10
2022-11-17T00:04:28.221Z,50.30
2022-11-17T00:05:28.084Z,50.20
2022-11-17T00:06:28.053Z,50.40
2022-11-17T00:07:28.121Z,50.30
2022-11-17T00:08:28.046Z,50.20
2022-11-17T00:09:28.145Z,50.20
2022-11-17T00:10:28.029Z,50.20
2022-11-17T00:11:28.005Z,50.20
2022-11-17T00:12:32.608Z,50.30
2022-11-17T00:13:28.006Z,50.30
2022-11-17T00:14:27.975Z,50.20
2022-11-17T00:15:27.986Z,50.20
2022-11-17T00:16:27.960Z,50.20
2022-11-17T00:17:27.942Z,50.20
2022-11-17T00:18:29.270Z,50.30
2022-11-17T00:19:27.926Z,50.20
2022-11-17T00:20:27.909Z,50.10
2022-11-17T00:21:27.915Z,50.10
2022-11-17T00:22:28.188Z,50.10
2022-11-17T00:23:27.881Z,50.10
2022-11-17T00:24:27.869Z,49.90
2022-11-17T00:25:27.870Z,50.00
2022-11-17T00:26:27.845Z,50.10
2022-11-17T00:27:28.306Z,50.10
2022-11-17T00:28:27.834Z,50.00
2022-11-17T00:29:27.818Z,50.00
2022-11-17T00:30:27.817Z,49.90
2022-11-17T00:31:27.795Z,49.90
2022-11-17T00:32:27.779Z,50.00
2022-11-17T00:33:27.812Z,50.00
2022-11-17T00:34:27.757Z,49.90
2022-11-17T00:35:27.767Z,49.90
2022-11-17T00:36:27.754Z,49.90
2022-11-17T00:37:27.730Z,49.90
2022-11-17T00:38:27.718Z,49.90
2022-11-17T00:39:27.724Z,50.00
2022-11-17T00:40:27.711Z,49.80
2022-11-17T00:41:27.874Z,49.80
2022-11-17T00:42:27.691Z,49.80
2022-11-17T00:43:27.668Z,49.70
2022-11-17T00:44:27.659Z,49.80
2022-11-17T00:45:27.668Z,49.80
2022-11-17T00:46:27.633Z,49.80
2022-11-17T00:47:27.640Z,49.80
2022-11-17T00:48:27.624Z,49.80
2022-11-17T00:49:27.607Z,49.70
2022-11-17T00:50:27.604Z,49.70
2022-11-17T00:51:27.586Z,49.70
2022-11-17T00:52:27.571Z,49.70
2022-11-17T00:53:27.578Z,49.70
2022-11-17T00:54:27.559Z,49.70
2022-11-17T00:55:27.709Z,49.80
2022-11-17T00:56:27.528Z,49.70
2022-11-17T00:57:27.540Z,49.70
2022-11-17T00:58:27.509Z,49.70
2022-11-17T00:59:27.515Z,49.60
2022-11-17T01:00:27.521Z,49.51
2022-11-17T01:01:27.525Z,49.60
2022-11-17T01:02:27.493Z,49.70
2022-11-17T01:03:27.456Z,49.70
2022-11-17T01:04:27.440Z,49.70
2022-11-17T01:05:31.793Z,49.70
2022-11-17T01:06:27.434Z,49.70
2022-11-17T01:07:27.537Z,49.70
2022-11-17T01:08:28.337Z,49.60
2022-11-17T01:09:27.392Z,49.60
2022-11-17T01:10:27.393Z,49.60
2022-11-17T01:11:28.267Z,49.60
2022-11-17T01:12:27.362Z,49.60
2022-11-17T01:13:27.368Z,49.60
2022-11-17T01:14:27.336Z,49.60
2022-11-17T01:15:27.346Z,49.70
2022-11-17T01:16:27.331Z,49.51
2022-11-17T01:17:28.190Z,49.70
2022-11-17T01:18:27.311Z,49.60
2022-11-17T01:19:27.287Z,49.60
2022-11-17T01:20:27.272Z,49.51
2022-11-17T01:21:27.279Z,49.51
2022-11-17T01:22:28.986Z,49.51
2022-11-17T01:23:27.259Z,49.51
2022-11-17T01:24:27.246Z,49.60
2022-11-17T01:25:27.222Z,49.70
2022-11-17T01:26:27.213Z,49.70
2022-11-17T01:27:27.840Z,49.60
2022-11-17T01:28:27.201Z,49.51
2022-11-17T01:29:27.205Z,49.60
2022-11-17T01:30:27.182Z,49.60
2022-11-17T01:31:27.176Z,49.51
2022-11-17T01:32:27.194Z,49.53
2022-11-17T01:33:27.154Z,49.51
2022-11-17T01:34:27.124Z,49.51
2022-11-17T01:35:27.188Z,49.51
2022-11-17T01:36:27.124Z,49.40
2022-11-17T01:37:27.098Z,49.51
2022-11-17T01:38:27.094Z,49.51
2022-11-17T01:39:27.077Z,49.51
2022-11-17T01:40:27.070Z,49.30
2022-11-17T01:41:27.517Z,49.40
2022-11-17T01:42:27.055Z,49.51
2022-11-17T01:43:27.037Z,49.60
2022-11-17T01:44:27.444Z,49.51
2022-11-17T01:45:27.026Z,49.40
2022-11-17T01:46:26.999Z,49.30
2022-11-17T01:47:27.026Z,49.40
2022-11-17T01:48:28.167Z,49.30
2022-11-17T01:49:26.973Z,49.30
2022-11-17T01:50:26.979Z,49.30
2022-11-17T01:51:26.952Z,49.40
2022-11-17T01:52:26.937Z,49.40
2022-11-17T01:53:27.461Z,49.43
2022-11-17T01:54:26.918Z,49.30
2022-11-17T01:55:26.921Z,49.40
2022-11-17T01:56:26.906Z,49.30
2022-11-17T01:57:26.909Z,49.30
2022-11-17T01:58:26.905Z,49.40
2022-11-17T01:59:26.881Z,49.40
2022-11-17T02:00:27.591Z,49.21
2022-11-17T02:01:26.889Z,49.33
2022-11-17T02:02:26.843Z,49.33
2022-11-17T02:03:26.822Z,49.13
2022-11-17T02:04:26.807Z,49.23
2022-11-17T02:05:27.745Z,49.10
2022-11-17T02:06:26.787Z,49.23
2022-11-17T02:07:26.982Z,49.13
2022-11-17T02:08:26.780Z,49.13
2022-11-17T02:09:26.778Z,49.13
2022-11-17T02:10:26.756Z,49.23
2022-11-17T02:11:26.739Z,49.13
2022-11-17T02:12:26.723Z,49.13
2022-11-17T02:13:26.733Z,49.13
2022-11-17T02:14:26.726Z,49.03
2022-11-17T02:15:27.572Z,49.13
2022-11-17T02:16:26.704Z,49.13
2022-11-17T02:17:26.818Z,49.03
2022-11-17T02:18:26.671Z,49.01
2022-11-17T02:19:26.666Z,49.03
2022-11-17T02:20:26.659Z,49.13
2022-11-17T02:21:26.640Z,49.10
2022-11-17T02:22:26.636Z,49.13
2022-11-17T02:23:26.609Z,49.13
2022-11-17T02:24:26.600Z,49.13
2022-11-17T02:25:27.329Z,49.23
2022-11-17T02:26:27.597Z,49.13
2022-11-17T02:27:26.578Z,49.03
2022-11-17T02:28:26.621Z,49.03
2022-11-17T02:29:26.545Z,49.03
2022-11-17T02:30:26.539Z,49.03
2022-11-17T02:31:26.537Z,49.03
2022-11-17T02:32:26.533Z,48.93
2022-11-17T02:33:26.505Z,49.10
2022-11-17T02:34:26.511Z,49.03
2022-11-17T02:35:26.478Z,49.01
2022-11-17T02:36:27.303Z,49.03
2022-11-17T02:37:26.474Z,48.93
2022-11-17T02:38:26.451Z,48.93
2022-11-17T02:39:26.453Z,49.03
2022-11-17T02:40:26.464Z,49.03
2022-11-17T02:41:27.341Z,49.01
2022-11-17T02:42:26.425Z,48.93
2022-11-17T02:43:26.397Z,49.01
2022-11-17T02:44:26.391Z,48.91
2022-11-17T02:45:26.390Z,48.93
2022-11-17T02:46:26.384Z,49.01
2022-11-17T02:47:26.351Z,49.03
2022-11-17T02:48:26.353Z,48.93
2022-11-17T02:49:26.348Z,48.93
2022-11-17T02:50:28.509Z,48.93
2022-11-17T02:51:26.329Z,49.03
2022-11-17T02:52:26.329Z,49.03
2022-11-17T02:53:26.293Z,48.93
2022-11-17T02:54:26.296Z,49.03
2022-11-17T02:55:26.267Z,49.03
2022-11-17T02:56:26.265Z,48.93
2022-11-17T02:57:27.167Z,49.13
2022-11-17T02:58:26.245Z,49.13
2022-11-17T02:59:26.249Z,49.01
2022-11-17T03:00:26.239Z,49.13
2022-11-17T03:01:26.219Z,48.93
2022-11-17T03:02:26.826Z,48.93
2022-11-17T03:03:26.200Z,49.03
2022-11-17T03:04:26.193Z,48.93
2022-11-17T03:05:26.197Z,48.93
2022-11-17T03:06:26.172Z,49.03
2022-11-17T03:07:26.506Z,48.93
2022-11-17T03:08:31.604Z,49.03
2022-11-17T03:09:26.145Z,49.03
2022-11-17T03:10:26.116Z,49.03
2022-11-17T03:11:26.165Z,49.03
2022-11-17T03:12:26.980Z,49.03
2022-11-17T03:13:26.078Z,49.13
2022-11-17T03:14:26.098Z,49.03
2022-11-17T03:15:28.066Z,48.93
2022-11-17T03:16:26.053Z,48.93
2022-11-17T03:17:26.048Z,48.83
2022-11-17T03:18:26.029Z,49.13
2022-11-17T03:19:26.027Z,48.93
2022-11-17T03:20:26.028Z,49.03
2022-11-17T03:21:25.993Z,48.93
2022-11-17T03:22:26.003Z,48.93
2022-11-17T03:23:25.972Z,48.83
2022-11-17T03:24:25.964Z,48.83
2022-11-17T03:25:25.968Z,48.83
2022-11-17T03:26:25.948Z,48.93
2022-11-17T03:27:25.949Z,48.83
2022-11-17T03:28:25.939Z,48.93
2022-11-17T03:29:25.924Z,48.83
2022-11-17T03:30:26.721Z,48.93
2022-11-17T03:31:25.888Z,48.83
2022-11-17T03:32:25.880Z,48.93
2022-11-17T03:33:25.966Z,48.93
2022-11-17T03:34:25.874Z,48.93
2022-11-17T03:35:25.855Z,48.93
2022-11-17T03:36:25.846Z,48.93
2022-11-17T03:37:25.839Z,48.93
2022-11-17T03:38:27.328Z,48.93
2022-11-17T03:39:25.820Z,48.73
2022-11-17T03:40:25.810Z,48.73
2022-11-17T03:41:25.784Z,48.83
2022-11-17T03:42:25.793Z,48.83
2022-11-17T03:43:25.761Z,48.83
2022-11-17T03:44:25.771Z,48.73
2022-11-17T03:45:25.756Z,48.83
2022-11-17T03:46:25.834Z,48.83
2022-11-17T03:47:25.733Z,48.73
2022-11-17T03:48:25.727Z,48.63
2022-11-17T03:49:25.700Z,48.73
2022-11-17T03:50:25.691Z,48.63
2022-11-17T03:51:25.696Z,48.73
2022-11-17T03:52:25.683Z,48.63
2022-11-17T03:53:25.657Z,48.73
2022-11-17T03:54:25.663Z,48.73
2022-11-17T03:55:25.636Z,48.73
2022-11-17T03:56:25.995Z,48.63
2022-11-17T03:57:25.627Z,48.63
2022-11-17T03:58:25.616Z,48.83
2022-11-17T03:59:25.609Z,48.63
2022-11-17T04:00:25.601Z,48.73
2022-11-17T04:01:26.447Z,48.73
2022-11-17T04:02:25.588Z,48.63
2022-11-17T04:03:27.171Z,48.73
2022-11-17T04:04:25.548Z,48.73
2022-11-17T04:05:25.546Z,48.73
2022-11-17T04:06:26.111Z,48.73
2022-11-17T04:07:25.569Z,48.73
2022-11-17T04:08:25.502Z,48.73
2022-11-17T04:09:25.518Z,48.83
2022-11-17T04:10:25.492Z,48.73
2022-11-17T04:11:25.501Z,48.63
2022-11-17T04:12:25.473Z,48.73
2022-11-17T04:13:25.472Z,48.53
2022-11-17T04:14:25.455Z,48.83
2022-11-17T04:15:25.424Z,48.73
2022-11-17T04:16:25.420Z,48.63
2022-11-17T04:17:25.433Z,48.73
2022-11-17T04:18:25.400Z,48.63
2022-11-17T04:19:25.468Z,48.63
2022-11-17T04:20:25.396Z,48.73
2022-11-17T04:21:25.361Z,48.73
2022-11-17T04:22:25.988Z,48.63
2022-11-17T04:23:25.340Z,48.43
2022-11-17T04:24:25.336Z,48.63
2022-11-17T04:25:25.346Z,48.63
2022-11-17T04:26:25.314Z,48.63
2022-11-17T04:27:25.311Z,48.63
2022-11-17T04:28:25.308Z,48.63
2022-11-17T04:29:26.656Z,48.63
2022-11-17T04:30:25.284Z,48.53
2022-11-17T04:31:25.258Z,48.63
2022-11-17T04:32:25.248Z,48.73
2022-11-17T04:33:25.245Z,48.63
2022-11-17T04:34:25.227Z,48.63
2022-11-17T04:35:25.224Z,48.63
2022-11-17T04:36:27.725Z,48.63
2022-11-17T04:37:25.190Z,48.63
2022-11-17T04:38:25.198Z,48.53
2022-11-17T04:39:25.170Z,48.53
2022-11-17T04:40:25.183Z,48.43
2022-11-17T04:41:25.147Z,48.43
2022-11-17T04:42:25.172Z,48.53
2022-11-17T04:43:25.127Z,48.43
2022-11-17T04:44:25.122Z,48.43
2022-11-17T04:45:27.055Z,48.43
2022-11-17T04:46:25.099Z,48.53
2022-11-17T04:47:25.097Z,48.53
2022-11-17T04:48:25.091Z,48.43
2022-11-17T04:49:25.068Z,48.43
2022-11-17T04:50:25.074Z,48.43
2022-11-17T04:51:25.049Z,48.53
2022-11-17T04:52:29.560Z,48.43
2022-11-17T04:53:25.035Z,48.33
2022-11-17T04:54:25.032Z,48.33
2022-11-17T04:55:25.000Z,48.53
2022-11-17T04:56:24.995Z,48.33
2022-11-17T04:57:25.827Z,48.33
2022-11-17T04:58:25.004Z,48.53
2022-11-17T04:59:24.975Z,48.43
2022-11-17T05:00:24.968Z,48.43
2022-11-17T05:01:24.936Z,48.53
2022-11-17T05:02:26.632Z,48.43
2022-11-17T05:03:24.920Z,48.43
2022-11-17T05:04:24.920Z,48.43
2022-11-17T05:05:24.909Z,48.43
2022-11-17T05:06:24.892Z,48.43
2022-11-17T05:07:24.982Z,48.43
2022-11-17T05:08:25.390Z,48.43
2022-11-17T05:09:24.852Z,48.43
2022-11-17T05:10:24.851Z,48.53
2022-11-17T05:11:24.972Z,48.43
2022-11-17T05:12:24.845Z,48.43
2022-11-17T05:13:24.816Z,48.33
2022-11-17T05:14:24.820Z,48.43
2022-11-17T05:15:25.214Z,48.63
2022-11-17T05:16:24.785Z,48.83
2022-11-17T05:17:24.786Z,49.03
2022-11-17T05:18:25.144Z,48.93
2022-11-17T05:19:24.822Z,48.93
2022-11-17T05:20:24.755Z,49.13
2022-11-17T05:21:24.728Z,49.33
2022-11-17T05:22:24.735Z,49.53
2022-11-17T05:23:24.712Z,49.63
2022-11-17T05:24:25.023Z,49.23
2022-11-17T05:25:25.304Z,49.23
2022-11-17T05:26:24.678Z,49.43
2022-11-17T05:27:24.701Z,49.63
2022-11-17T05:28:24.675Z,49.43
2022-11-17T05:29:24.656Z,49.73
2022-11-17T05:30:24.699Z,49.63
2022-11-17T05:31:24.623Z,49.63
2022-11-17T05:32:24.634Z,49.83
2022-11-17T05:33:24.620Z,49.63
2022-11-17T05:34:24.687Z,49.63
2022-11-17T05:35:24.593Z,49.63
2022-11-17T05:36:24.591Z,49.73
2022-11-17T05:37:24.562Z,49.93
2022-11-17T05:38:24.569Z,50.02
2022-11-17T05:39:24.536Z,50.23
2022-11-17T05:40:24.667Z,50.32
2022-11-17T05:41:24.532Z,50.52
2022-11-17T05:42:24.560Z,50.52
2022-11-17T05:43:24.496Z,50.43
2022-11-17T05:44:24.489Z,50.43
2022-11-17T05:45:24.593Z,50.73
2022-11-17T05:46:24.476Z,50.43
2022-11-17T05:47:24.889Z,50.32
2022-11-17T05:48:24.469Z,50.23
2022-11-17T05:49:24.431Z,49.83
2022-11-17T05:50:24.439Z,49.63
2022-11-17T05:51:24.843Z,49.53
2022-11-17T05:52:24.411Z,48.73
2022-11-17T05:53:24.413Z,47.74
2022-11-17T05:54:24.388Z,47.53
2022-11-17T05:55:24.387Z,48.33
2022-11-17T05:56:24.383Z,49.03
2022-11-17T05:57:24.382Z,49.93
2022-11-17T05:58:24.341Z,50.23
2022-11-17T05:59:27.745Z,50.32
2022-11-17T06:00:24.334Z,50.23
2022-11-17T06:01:24.309Z,50.23
2022-11-17T06:02:24.329Z,50.52
2022-11-17T06:03:24.289Z,50.52
2022-11-17T06:04:24.298Z,49.43
2022-11-17T06:05:24.299Z,48.73
2022-11-17T06:06:24.257Z,48.53
2022-11-17T06:07:24.310Z,46.34
2022-11-17T06:08:24.249Z,45.54
2022-11-17T06:09:24.224Z,46.64
2022-11-17T06:10:24.230Z,48.13
2022-11-17T06:11:24.199Z,48.43
2022-11-17T06:12:24.210Z,49.23
2022-11-17T06:13:24.198Z,49.53
2022-11-17T06:14:24.184Z,49.83
2022-11-17T06:15:24.161Z,49.73
2022-11-17T06:16:24.155Z,49.53
2022-11-17T06:17:24.150Z,49.53
2022-11-17T06:18:24.211Z,49.63
2022-11-17T06:19:24.128Z,49.73
2022-11-17T06:20:24.153Z,49.53
2022-11-17T06:21:24.094Z,49.93
2022-11-17T06:22:24.158Z,49.73
2022-11-17T06:23:24.135Z,49.73
2022-11-17T06:24:24.065Z,49.83
2022-11-17T06:25:24.064Z,49.93
2022-11-17T06:26:24.044Z,49.73
2022-11-17T06:27:24.062Z,49.73
2022-11-17T06:28:24.075Z,49.43
2022-11-17T06:29:24.030Z,49.43
2022-11-17T06:30:24.020Z,49.43
2022-11-17T06:31:25.397Z,49.73
2022-11-17T06:32:24.142Z,49.63
2022-11-17T06:33:24.004Z,49.53
2022-11-17T06:34:23.956Z,49.53
2022-11-17T06:35:23.963Z,49.43
2022-11-17T06:36:23.989Z,49.23
2022-11-17T06:37:23.925Z,49.53
2022-11-17T06:38:24.143Z,49.53
2022-11-17T06:39:23.907Z,49.63
2022-11-17T06:40:23.900Z,49.43
2022-11-17T06:41:23.895Z,49.53
2022-11-17T06:42:23.866Z,49.43
2022-11-17T06:43:23.884Z,49.43
2022-11-17T06:44:23.860Z,49.23
2022-11-17T06:45:23.839Z,48.83
2022-11-17T06:46:23.830Z,49.33
2022-11-17T06:47:23.833Z,49.23
2022-11-17T06:48:26.085Z,49.23
2022-11-17T06:49:23.799Z,49.13
2022-11-17T06:50:24.896Z,49.13
2022-11-17T06:51:23.794Z,49.03
2022-11-17T06:52:23.850Z,49.13
2022-11-17T06:53:23.806Z,49.13
2022-11-17T06:54:23.768Z,49.13
2022-11-17T06:55:23.784Z,48.93
2022-11-17T06:56:23.747Z,48.63
2022-11-17T06:57:23.763Z,48.43
2022-11-17T06:58:23.722Z,48.33
2022-11-17T06:59:24.581Z,48.63
2022-11-17T07:00:25.104Z,48.93
2022-11-17T07:01:23.750Z,48.93
2022-11-17T07:02:23.680Z,48.83
2022-11-17T07:03:23.708Z,49.03
2022-11-17T07:04:23.661Z,49.03
2022-11-17T07:05:23.681Z,48.93
2022-11-17T07:06:23.654Z,49.13
2022-11-17T07:07:23.712Z,49.13
2022-11-17T07:08:23.683Z,49.23
2022-11-17T07:09:23.635Z,49.23
2022-11-17T07:10:23.600Z,49.43
2022-11-17T07:11:23.636Z,49.53
2022-11-17T07:12:23.581Z,49.53
2022-11-17T07:13:23.593Z,49.33
2022-11-17T07:14:23.553Z,49.33
2022-11-17T07:15:23.598Z,49.53
2022-11-17T07:16:24.228Z,49.73
2022-11-17T07:17:23.569Z,49.73
2022-11-17T07:18:23.511Z,49.63
2022-11-17T07:19:23.533Z,49.73
2022-11-17T07:20:24.884Z,49.83
2022-11-17T07:21:23.509Z,49.83
2022-11-17T07:22:23.470Z,49.93
2022-11-17T07:23:23.525Z,49.83
2022-11-17T07:24:23.448Z,49.83
2022-11-17T07:25:23.480Z,49.83
2022-11-17T07:26:23.432Z,49.93
2022-11-17T07:27:23.451Z,49.73
2022-11-17T07:28:23.420Z,49.90
2022-11-17T07:29:24.551Z,49.90
2022-11-17T07:30:23.385Z,49.80
2022-11-17T07:31:23.406Z,49.80
2022-11-17T07:32:23.368Z,49.80
2022-11-17T07:33:23.382Z,49.70
2022-11-17T07:34:24.619Z,49.30
2022-11-17T07:35:23.403Z,49.51
2022-11-17T07:36:23.327Z,49.40
2022-11-17T07:37:23.338Z,49.30
2022-11-17T07:38:23.301Z,49.30
2022-11-17T07:39:23.325Z,49.51
2022-11-17T07:40:23.285Z,49.60
2022-11-17T07:41:23.299Z,49.70
2022-11-17T07:42:44.281Z,49.70
2022-11-17T07:43:23.321Z,49.70
2022-11-17T07:44:23.239Z,49.80
2022-11-17T07:45:25.087Z,49.60
2022-11-17T07:46:23.219Z,49.51
2022-11-17T07:47:23.237Z,49.51
2022-11-17T07:48:23.200Z,49.70
2022-11-17T07:49:23.211Z,49.60
2022-11-17T07:50:23.174Z,49.60
2022-11-17T07:51:23.192Z,49.60
2022-11-17T07:52:23.156Z,49.60
2022-11-17T07:53:23.172Z,49.70
2022-11-17T07:54:23.141Z,49.60
2022-11-17T07:55:23.154Z,49.51
2022-11-17T07:56:23.111Z,49.51
2022-11-17T07:57:23.834Z,49.60
2022-11-17T07:58:23.108Z,49.70
2022-11-17T07:59:23.113Z,49.21
2022-11-17T08:00:23.068Z,49.40
2022-11-17T08:01:23.156Z,49.40
2022-11-17T08:02:23.054Z,49.40
2022-11-17T08:03:23.093Z,49.40
2022-11-17T08:04:23.031Z,49.30
2022-11-17T08:05:23.043Z,49.30
2022-11-17T08:06:23.018Z,49.30
2022-11-17T08:07:23.095Z,49.30
2022-11-17T08:08:22.988Z,49.30
2022-11-17T08:09:23.003Z,49.21
2022-11-17T08:10:22.967Z,49.10
2022-11-17T08:11:22.981Z,49.21
2022-11-17T08:12:24.171Z,49.21
2022-11-17T08:13:22.960Z,49.21
2022-11-17T08:14:22.921Z,49.21
2022-11-17T08:15:22.940Z,49.21
2022-11-17T08:16:22.906Z,49.10
2022-11-17T08:17:23.649Z,49.01
2022-11-17T08:18:22.884Z,49.10
2022-11-17T08:19:22.898Z,49.21
2022-11-17T08:20:22.942Z,49.60
2022-11-17T08:21:22.984Z,49.80
2022-11-17T08:22:22.841Z,49.90
2022-11-17T08:23:22.855Z,49.80
2022-11-17T08:24:22.871Z,49.70
2022-11-17T08:25:22.832Z,49.80
2022-11-17T08:26:23.443Z,49.70
2022-11-17T08:27:22.936Z,49.70
2022-11-17T08:28:22.779Z,49.80
2022-11-17T08:29:22.802Z,49.70
2022-11-17T08:30:22.899Z,49.80
2022-11-17T08:31:22.773Z,49.80
2022-11-17T08:32:22.747Z,49.80
2022-11-17T08:33:23.598Z,49.80
2022-11-17T08:34:22.714Z,49.90
2022-11-17T08:35:22.800Z,49.90
2022-11-17T08:36:22.689Z,49.80
2022-11-17T08:37:22.823Z,49.80
2022-11-17T08:38:22.683Z,49.80
2022-11-17T08:39:22.687Z,49.80
2022-11-17T08:40:22.744Z,49.78
2022-11-17T08:41:22.715Z,49.68
2022-11-17T08:42:22.867Z,49.68
2022-11-17T08:43:22.646Z,49.58
2022-11-17T08:44:22.610Z,49.58
2022-11-17T08:45:22.623Z,49.58
2022-11-17T08:46:24.268Z,49.58
2022-11-17T08:47:22.604Z,49.48
2022-11-17T08:48:22.565Z,49.48
2022-11-17T08:49:22.583Z,49.58
2022-11-17T08:50:22.545Z,49.58
2022-11-17T08:51:22.563Z,49.38
2022-11-17T08:52:22.998Z,49.38
2022-11-17T08:53:22.542Z,49.48
2022-11-17T08:54:22.498Z,49.38
2022-11-17T08:55:22.593Z,49.28
2022-11-17T08:56:22.478Z,49.28
2022-11-17T08:57:22.669Z,49.28
2022-11-17T08:58:22.478Z,49.28
2022-11-17T08:59:22.464Z,49.18
2022-11-17T09:00:22.945Z,49.18
2022-11-17T09:01:22.553Z,49.28
2022-11-17T09:02:22.401Z,49.28
2022-11-17T09:03:22.438Z,49.28
2022-11-17T09:04:22.394Z,49.28
2022-11-17T09:05:23.378Z,49.28
2022-11-17T09:06:22.374Z,49.18
2022-11-17T09:07:23.224Z,49.28
2022-11-17T09:08:44.317Z,49.18
2022-11-17T09:09:22.394Z,49.18
2022-11-17T09:10:22.334Z,49.08
2022-11-17T09:11:22.335Z,49.18
2022-11-17T09:12:23.171Z,49.18
2022-11-17T09:13:22.513Z,49.18
2022-11-17T09:14:22.270Z,49.18
2022-11-17T09:15:22.306Z,49.18
2022-11-17T09:16:22.269Z,49.28
2022-11-17T09:17:22.779Z,49.28
2022-11-17T09:18:22.249Z,49.08
2022-11-17T09:19:22.249Z,48.98
2022-11-17T09:20:22.212Z,49.08
2022-11-17T09:21:22.246Z,48.98
2022-11-17T09:22:22.191Z,48.98
2022-11-17T09:23:22.222Z,48.98
2022-11-17T09:24:22.194Z,49.08
2022-11-17T09:25:22.291Z,49.08
2022-11-17T09:26:22.145Z,48.98
2022-11-17T09:27:22.186Z,49.08
2022-11-17T09:28:22.147Z,48.98
2022-11-17T09:29:22.140Z,48.98
2022-11-17T09:30:22.127Z,48.98
2022-11-17T09:31:22.222Z,48.98
2022-11-17T09:32:22.087Z,48.88
2022-11-17T09:33:22.160Z,48.98
2022-11-17T09:34:22.094Z,48.98
2022-11-17T09:35:22.094Z,48.86
2022-11-17T09:36:22.059Z,48.86
2022-11-17T09:37:22.092Z,48.96
2022-11-17T09:38:22.034Z,48.86
2022-11-17T09:39:22.035Z,48.96
2022-11-17T09:40:22.006Z,48.86
2022-11-17T09:41:22.039Z,48.76
2022-11-17T09:42:21.988Z,48.76
2022-11-17T09:43:22.013Z,48.86
2022-11-17T09:44:21.973Z,48.86
2022-11-17T09:45:21.974Z,48.76
2022-11-17T09:46:21.953Z,48.76
2022-11-17T09:47:21.959Z,48.86
2022-11-17T09:49:21.976Z,48.66
2022-11-17T09:50:21.891Z,48.76
2022-11-17T09:51:21.928Z,48.66
2022-11-17T09:52:21.893Z,48.66
2022-11-17T09:53:21.891Z,48.76
2022-11-17T09:54:21.876Z,48.66
2022-11-17T09:55:21.868Z,48.66
2022-11-17T09:56:21.832Z,48.66
2022-11-17T09:57:21.864Z,48.66
2022-11-17T09:58:22.260Z,48.66
2022-11-17T09:59:21.823Z,48.56
2022-11-17T10:00:21.787Z,48.56
2022-11-17T10:01:21.824Z,48.56
2022-11-17T10:02:21.847Z,48.56
2022-11-17T10:03:21.806Z,48.66
2022-11-17T10:04:21.773Z,48.56
2022-11-17T10:05:21.761Z,48.66
2022-11-17T10:06:21.741Z,48.66
2022-11-17T10:07:21.788Z,48.86
2022-11-17T10:08:21.754Z,48.76
2022-11-17T10:09:25.655Z,48.86
2022-11-17T10:10:21.683Z,48.86
2022-11-17T10:11:21.718Z,48.76
2022-11-17T10:12:21.696Z,48.76
2022-11-17T10:13:21.678Z,48.86
2022-11-17T10:14:21.640Z,48.88
2022-11-17T10:15:21.674Z,48.98
2022-11-17T10:16:21.640Z,48.88
2022-11-17T10:17:21.638Z,48.79
2022-11-17T10:18:21.618Z,48.88
2022-11-17T10:19:21.614Z,48.88
2022-11-17T10:20:21.581Z,48.86
2022-11-17T10:21:21.615Z,48.86
2022-11-17T10:22:21.571Z,48.88
2022-11-17T10:23:21.603Z,48.76
2022-11-17T10:24:21.555Z,48.76
2022-11-17T10:25:21.747Z,48.76
2022-11-17T10:26:21.531Z,48.66
2022-11-17T10:27:21.533Z,48.76
2022-11-17T10:28:21.495Z,48.66
2022-11-17T10:29:21.527Z,48.66
2022-11-17T10:30:21.898Z,48.56
2022-11-17T10:31:22.268Z,48.66
2022-11-17T10:32:21.454Z,48.66
2022-11-17T10:33:21.484Z,48.66
2022-11-17T10:34:25.513Z,48.66
2022-11-17T10:35:21.476Z,48.66
2022-11-17T10:36:21.447Z,48.66
2022-11-17T10:37:21.424Z,48.66
2022-11-17T10:38:21.872Z,48.76
2022-11-17T10:39:21.406Z,48.66
2022-11-17T10:40:25.326Z,48.66
2022-11-17T10:41:21.593Z,48.66
2022-11-17T10:42:21.347Z,48.86
2022-11-17T10:43:21.413Z,48.86
2022-11-17T10:44:21.343Z,48.76
2022-11-17T10:45:22.347Z,48.76
2022-11-17T10:46:21.329Z,48.76
2022-11-17T10:47:21.307Z,48.86
2022-11-17T10:48:21.326Z,48.86
2022-11-17T10:49:21.276Z,48.96
2022-11-17T10:50:21.342Z,48.96
2022-11-17T10:51:21.248Z,48.96
2022-11-17T10:52:21.272Z,49.06
2022-11-17T10:53:21.247Z,48.96
2022-11-17T10:54:21.247Z,49.06
2022-11-17T10:55:21.223Z,49.06
2022-11-17T10:56:21.241Z,49.06
2022-11-17T10:57:21.184Z,49.06
2022-11-17T10:58:21.222Z,49.06
2022-11-17T10:59:21.184Z,49.06
2022-11-17T11:00:21.186Z,49.06
2022-11-17T11:01:25.837Z,49.06
2022-11-17T11:02:21.180Z,48.98
2022-11-17T11:03:21.122Z,48.96
2022-11-17T11:04:21.144Z,48.98
2022-11-17T11:05:21.125Z,48.79
2022-11-17T11:06:21.117Z,48.98
2022-11-17T11:07:21.228Z,49.08
2022-11-17T11:08:21.119Z,49.08
2022-11-17T11:09:21.057Z,49.08
2022-11-17T11:10:22.489Z,49.08
2022-11-17T11:11:21.036Z,49.08
2022-11-17T11:12:21.053Z,49.08
2022-11-17T11:13:21.034Z,49.06
2022-11-17T11:14:21.035Z,49.08
2022-11-17T11:15:21.253Z,49.08
2022-11-17T11:16:21.036Z,49.08
2022-11-17T11:17:20.982Z,49.08
2022-11-17T11:18:21.007Z,49.08
2022-11-17T11:19:20.979Z,49.08
2022-11-17T11:20:20.995Z,49.06
2022-11-17T11:21:20.935Z,49.08
2022-11-17T11:22:21.667Z,47.96
2022-11-17T11:23:20.912Z,46.97
2022-11-17T11:24:20.937Z,47.17
2022-11-17T11:25:20.913Z,47.56
2022-11-17T11:26:20.920Z,47.77
2022-11-17T11:27:20.895Z,48.08
2022-11-17T11:28:20.902Z,48.19
2022-11-17T11:29:20.848Z,48.28
2022-11-17T11:30:20.887Z,48.38
2022-11-17T11:31:20.828Z,48.49
2022-11-17T11:32:21.278Z,48.58
2022-11-17T11:33:20.826Z,48.58
2022-11-17T11:34:20.842Z,48.58
2022-11-17T11:35:20.788Z,48.68
2022-11-17T11:36:20.805Z,48.68
2022-11-17T11:37:20.782Z,48.68
2022-11-17T11:38:20.777Z,48.68
2022-11-17T11:39:20.763Z,48.79
2022-11-17T11:40:20.784Z,48.88
2022-11-17T11:41:20.723Z,48.88
2022-11-17T11:42:21.504Z,48.88
2022-11-17T11:43:20.701Z,48.88
2022-11-17T11:44:20.717Z,48.98
2022-11-17T11:45:20.697Z,48.88
2022-11-17T11:46:20.773Z,48.98
2022-11-17T11:47:20.674Z,48.98
2022-11-17T11:48:20.695Z,48.98
2022-11-17T11:49:20.935Z,49.08
2022-11-17T11:50:20.671Z,48.98
2022-11-17T11:51:20.613Z,49.08
2022-11-17T11:52:21.150Z,49.08
2022-11-17T11:53:20.612Z,49.08
2022-11-17T11:54:20.613Z,48.98
2022-11-17T11:55:20.596Z,49.10
2022-11-17T11:56:21.030Z,49.10
2022-11-17T11:57:20.548Z,49.08
2022-11-17T11:58:20.588Z,49.18
2022-11-17T11:59:20.531Z,49.08
2022-11-17T12:00:20.532Z,48.98
2022-11-17T12:01:20.525Z,48.98
2022-11-17T12:02:20.629Z,49.40
2022-11-17T12:03:20.563Z,49.38
2022-11-17T12:04:20.521Z,49.18
2022-11-17T12:05:20.507Z,49.28
2022-11-17T12:06:20.483Z,49.38
2022-11-17T12:07:20.570Z,49.28
2022-11-17T12:08:20.482Z,49.28
2022-11-17T12:09:20.422Z,49.28
2022-11-17T12:10:20.464Z,49.38
2022-11-17T12:11:20.401Z,49.28
2022-11-17T12:12:20.428Z,49.38
2022-11-17T12:13:20.402Z,49.48
2022-11-17T12:14:20.397Z,49.38
2022-11-17T12:15:20.393Z,49.48
2022-11-17T12:16:20.393Z,49.48
2022-11-17T12:17:20.341Z,49.48
2022-11-17T12:18:20.375Z,49.38
2022-11-17T12:19:20.320Z,49.48
2022-11-17T12:20:20.353Z,49.38
2022-11-17T12:21:20.312Z,49.48
2022-11-17T12:22:20.332Z,49.58
2022-11-17T12:23:20.333Z,49.58
2022-11-17T12:24:20.314Z,49.58
2022-11-17T12:25:20.274Z,49.48
2022-11-17T12:26:20.271Z,49.58
2022-11-17T12:27:20.250Z,49.58
2022-11-17T12:28:20.270Z,49.58
2022-11-17T12:29:20.212Z,49.58
2022-11-17T12:30:20.248Z,49.48
2022-11-17T12:31:20.189Z,49.48
2022-11-17T12:32:20.211Z,49.58
2022-11-17T12:33:20.189Z,49.48
2022-11-17T12:34:20.187Z,49.48
2022-11-17T12:35:20.165Z,49.48
2022-11-17T12:36:23.084Z,49.48
2022-11-17T12:37:20.135Z,49.48
2022-11-17T12:38:20.569Z,49.48
2022-11-17T12:39:20.127Z,49.58
2022-11-17T12:40:20.141Z,49.58
2022-11-17T12:41:20.086Z,49.68
2022-11-17T12:42:20.156Z,49.58
2022-11-17T12:43:20.064Z,49.68
2022-11-17T12:44:20.692Z,49.58
2022-11-17T12:45:20.063Z,49.58
2022-11-17T12:46:20.058Z,49.58
2022-11-17T12:47:20.051Z,49.78
2022-11-17T12:48:33.512Z,49.68
2022-11-17T12:49:20.046Z,49.58
2022-11-17T12:50:20.036Z,49.58
2022-11-17T12:51:19.986Z,49.68
2022-11-17T12:52:19.998Z,49.58
2022-11-17T12:53:19.974Z,49.68